Terminal Aerodrome Forecast
Issued by NWS

Home | Current Version | Previous Version | Text Only | Print | Product List | Glossary On
Versions: 1 2 3 4 5 6 7 8 9 10 11 12 13 14 15 16 17
000
FTUS46 KMTR 310539
TAFSNS
TAF
KSNS 310539Z 3106/0106 28008KT P6SM OVC007
     FM311200 VRB03KT 6SM BR OVC004
     FM311830 29007KT P6SM SKC
     FM312100 28013KT P6SM SKC
     FM010300 28008KT P6SM OVC007=

USA.gov is the U.S. government's official web portal to all federal, state and local government web resources and services.